• Join FlightAware (Why Join?)
  • Login
  • US Flag 
12:08PM EDT


 

Airport Tracker/Info


-or-


 

Live Flight TrackerFlight Track Log ✈ UPS1219 ✈ 03-Jun-2013 ✈ KIAD - KSDF

Flight Track Log - Related Links

Times and Time Zones

All times are in EDT time to prevent confusion due to time zone crossing. See the UPS1219 flight status page for this flight to view local times or setup timezone preferences in your user account.

Time Position Orientation Groundspeed Altitude Reporting Facility
EDT Latitude Longitude Course Direction KTS MPH feet Rate Location/Type
10:58PM 38.9430 -77.5090 250° West 175 201 2,700  Level FlightAware
10:59PM 38.9330 -77.5360 245° Southwest 227 261 3,300 2,460 Climbing FlightAware
10:59PM 38.9260 -77.5800 258° West 253 291 5,000 3,960 Climbing FlightAware
11:00PM 38.9210 -77.6240 262° West 252 290 7,300 4,500 Climbing FlightAware
11:00PM 38.9160 -77.6680 262° West 254 292 9,500 3,240 Climbing FlightAware
11:01PM 38.9080 -77.7340 261° West 306 352 11,100 2,040 Climbing FlightAware
11:01PM 38.8990 -77.8240 263° West 367 422 12,400 2,460 Climbing FlightAware
11:02PM 38.8900 -77.9100 262° West 380 437 14,600 3,240 Climbing FlightAware
11:03PM 38.8780 -78.0140 262° West 388 447 17,100 2,880 Climbing FlightAware
11:04PM 38.8680 -78.1050 262° West 408 470 18,700 2,640 Climbing FlightAware
11:04PM 38.8570 -78.2050 262° West 415 478 20,600 2,640 Climbing FlightAware
11:05PM 38.8540 -78.3170 268° West 425 489 22,500 2,460 Climbing FlightAware
11:06PM 38.8530 -78.4030 269° West 430 495 23,900 2,100 Climbing FlightAware
11:06PM 38.8520 -78.5330 269° West 445 512 25,500 1,920 Climbing FlightAware
11:07PM 38.8500 -78.6390 269° West 454 522 26,800 2,100 Climbing FlightAware
11:08PM 38.8480 -78.7520 269° West 451 519 28,400 2,460 Climbing FlightAware
11:08PM 38.8460 -78.8580 269° West 441 507 30,200 2,460 Climbing FlightAware
11:09PM 38.8320 -78.9700 261° West 435 501 31,900 2,100 Climbing FlightAware
11:10PM 38.8160 -79.0740 259° West 431 496 33,200 1,800 Climbing FlightAware
11:10PM 38.8020 -79.1610 258° West 428 493 34,300 1,440 Climbing FlightAware
11:11PM 38.7820 -79.2850 258° West 432 497 35,300 1,200 Climbing FlightAware
11:12PM 38.7640 -79.3960 258° West 436 502 36,100 420 Climbing FlightAware
11:13PM 38.7450 -79.5070 258° West 436 502 36,000 -120 Descending FlightAware
11:13PM 38.7310 -79.5950 258° West 431 496 36,000  Level FlightAware
11:14PM 38.7120 -79.7120 258° West 429 494 36,000  Level FlightAware
11:15PM 38.6950 -79.8090 257° West 433 498 36,000  Level FlightAware
11:16PM 38.6910 -79.8340 258° West 432 497 36,000  Level FlightAware
11:17PM 38.6410 -80.1320 258° West 432 497 36,000  Level FlightAware
11:18PM 38.6240 -80.2320 258° West 432 497 36,000  Level FlightAware
11:18PM 38.6050 -80.3440 258° West 431 496 36,000  Level FlightAware
11:19PM 38.5860 -80.4510 257° West 431 496 36,000  Level FlightAware
11:20PM 38.5690 -80.5480 257° West 431 496 36,000  Level FlightAware
11:20PM 38.5510 -80.6520 258° West 430 495 36,000  Level FlightAware
11:21PM 38.5320 -80.7610 257° West 431 496 36,000  Level FlightAware
11:22PM 38.5130 -80.8710 258° West 433 498 36,000  Level FlightAware
11:22PM 38.4950 -80.9700 257° West 433 498 36,000  Level FlightAware
11:23PM 38.4780 -81.0650 257° West 434 499 36,000  Level FlightAware
11:24PM 38.4580 -81.1780 257° West 434 499 36,000  Level FlightAware
11:25PM 38.4380 -81.2900 257° West 434 499 36,000  Level FlightAware
11:25PM 38.4190 -81.3900 256° West 433 498 36,000  Level FlightAware
11:26PM 38.4000 -81.4990 257° West 435 501 36,000  Level FlightAware
11:27PM 38.3810 -81.5990 256° West 435 501 36,000  Level FlightAware
11:27PM 38.3630 -81.6990 257° West 435 501 36,000  Level FlightAware
11:28PM 38.3410 -81.8000 255° West 436 502 36,000  Level FlightAware
11:29PM 38.3110 -81.9090 251° West 436 502 36,000  Level FlightAware
11:29PM 38.2840 -82.0060 251° West 436 502 36,000  Level FlightAware
11:30PM 38.2492 -82.1268 250° West 438 504 36,000  Level FlightAware ADS-B
11:31PM 38.2260 -82.2070 250° West 437 503 36,000  Level FlightAware
11:32PM 38.1980 -82.3080 251° West 436 502 36,000  Level FlightAware
11:32PM 38.1900 -82.3371 251° West 437 503 36,000  Level FlightAware ADS-B
11:32PM 38.1664 -82.4190 250° West 437 503 36,000  Level FlightAware ADS-B
11:33PM 38.1440 -82.4962 250° West 437 503 36,000  Level FlightAware ADS-B
11:33PM 38.1231 -82.5688 250° West 439 505 36,000  Level FlightAware ADS-B
11:34PM 38.1011 -82.6462 250° West 439 505 36,000 -480 Level FlightAware ADS-B
11:34PM 38.0790 -82.7235 250° West 438 504 35,500 -960 Descending FlightAware ADS-B
11:35PM 38.0555 -82.8051 250° West 435 501 35,000 -1,020 Descending FlightAware ADS-B
11:36PM 38.0211 -82.9246 250° West 434 499 34,100 -780 Descending FlightAware ADS-B
11:37PM 37.9910 -83.0260 249° West 433 498 33,800 -240 Descending FlightAware
11:37PM 37.9610 -83.1250 249° West 433 498 33,800 -1,440 Level FlightAware
11:38PM 37.9394 -83.2027 251° West 434 499 32,200 -1,200 Descending FlightAware ADS-B
11:39PM 37.8897 -83.3723 250° West 440 506 32,000 -120 Descending FlightAware ADS-B
11:40PM 37.8413 -83.5354 249° West 440 506 32,000 -1,080 Level FlightAware ADS-B
11:43PM 37.6886 -84.0414 249° West 459 528 27,300 -1,500 Descending FlightAware ADS-B
11:44PM 37.6656 -84.1195 250° West 465 535 26,300 -1,980 Descending FlightAware ADS-B
11:44PM 37.6414 -84.1980 249° West 463 533 25,300 -1,980 Descending FlightAware ADS-B
11:45PM 37.6174 -84.2783 249° West 457 526 24,200 -2,040 Descending FlightAware ADS-B
11:45PM 37.5947 -84.3522 249° West 450 518 23,200 -2,400 Descending FlightAware ADS-B
11:46PM 37.5700 -84.4324 249° West 448 516 21,700 -2,700 Descending FlightAware ADS-B
11:47PM 37.5452 -84.5135 249° West 435 501 20,200 -2,700 Descending FlightAware ADS-B
11:47PM 37.5228 -84.5853 249° West 425 489 18,800 -2,760 Descending FlightAware ADS-B
11:48PM 37.4983 -84.6684 250° West 414 476 17,100 -2,760 Descending FlightAware ADS-B
11:48PM 37.4964 -84.6799 258° West 405 466 16,900 -1,980 Descending FlightAware ADS-B
11:48PM 37.4964 -84.7247 258° West 410 472 16,100 -1,500 Descending Indianapolis Center
11:54PM 37.8080 -85.2450 258° West 281 323 8,300 -1,440 Descending FlightAware
11:54PM 37.8240 -85.2880 295° West 276 318 7,600 -1,500 Descending FlightAware
11:55PM 37.8410 -85.3290 298° West 272 313 6,900 -1,500 Descending FlightAware
11:55PM 37.8650 -85.3860 298° West 274 315 5,900 -1,500 Descending FlightAware
11:56PM 37.8740 -85.4110 295° West 275 316 5,500 -1,500 Descending FlightAware
11:56PM 37.8880 -85.4450 298° West 273 314 4,900 -1,560 Descending FlightAware
11:57PM 37.9050 -85.4880 297° West 269 310 4,100 -1,620 Descending FlightAware
11:57PM 37.9120 -85.5050 298° West 267 307 3,800 -1,440 Descending FlightAware
11:57PM 37.9260 -85.5410 296° West 264 304 3,200 -720 Descending FlightAware
11:58PM 37.9380 -85.5730 295° West 264 304 3,200 -240 Level FlightAware
11:59PM 37.9760 -85.6400 306° West 193 222 2,900 -240 Descending FlightAware
11:59PM 37.9950 -85.6630 316° Northwest 188 216 2,900  Level FlightAware
11:59PM 38.0050 -85.6690 335° Northwest 187 215 2,900  Level FlightAware
12:00AM 38.0150 -85.6730 343° North 186 214 2,900  Level FlightAware
12:00AM 38.0370 -85.6800 346° North 185 213 2,900 -480 Level FlightAware
12:00AM 38.0580 -85.6870 345° North 181 208 2,500 -900 Descending FlightAware
12:01AM 38.0710 -85.6910 346° North 168 193 2,300 -840 Descending FlightAware
12:01AM 38.0930 -85.6990 344° North 137 158 1,800 -780 Descending FlightAware
12:02AM 38.1070 -85.7040 344° North 120 138 1,600 -600 Descending FlightAware
12:02AM 38.1140 -85.7060 347° North 119 137 1,400 -720 Descending FlightAware
12:02AM 38.1310 -85.7120 344° North 118 136 1,100 -660 Descending FlightAware
12:03AM 38.1460 -85.7170 345° North 119 137 800 -660 Descending FlightAware
12:03AM 38.1610 -85.7220 345° North 126 145 500 -660 Descending FlightAware
12:04AM 38.1740 -85.7270 343° North 100 115 -1,260 Descending FlightAware
12:04AM 38.1790 -85.7280 351° North 35 40  Level FlightAware
12:04AM 38.1800 -85.7290 322° Northwest 24 28  Level FlightAware
12:11AM 38.1667 -85.7333 208° Southwest  Level FlightAware Approximate